createdAt,value
2022-08-14T00:04:41.775Z,96640.63
2022-08-14T00:09:55.496Z,96633.78
2022-08-14T00:14:49.544Z,96624.06
2022-08-14T00:19:49.484Z,96612.97
2022-08-14T00:24:45.294Z,96598.22
2022-08-14T00:29:40.621Z,96587.63
2022-08-14T00:34:46.676Z,96566.06
2022-08-14T00:39:43.358Z,96583.88
2022-08-14T00:44:37.450Z,96581.06
2022-08-14T00:49:42.632Z,96581.94
2022-08-14T00:54:38.811Z,96587.56
2022-08-14T00:59:36.375Z,96588.03
2022-08-14T01:04:37.768Z,96572.97
2022-08-14T01:09:48.417Z,96584.56
2022-08-14T01:14:43.347Z,96571.69
2022-08-14T01:19:54.793Z,96570.53
2022-08-14T01:24:50.964Z,96565.16
2022-08-14T01:30:01.477Z,96558.16
2022-08-14T01:35:21.298Z,96565.41
2022-08-14T01:40:15.422Z,96544.88
2022-08-14T01:45:17.924Z,96539.63
2022-08-14T01:50:18.958Z,96538.91
2022-08-14T01:55:23.227Z,96524.38
2022-08-14T02:00:18.760Z,96520.31
2022-08-14T02:05:14.653Z,96516.34
2022-08-14T02:10:13.279Z,96516.72
2022-08-14T02:15:11.491Z,96524.47
2022-08-14T02:20:08.566Z,96515.59
2022-08-14T02:25:02.006Z,96502.50
2022-08-14T02:30:01.106Z,96502.50
2022-08-14T02:34:56.971Z,96501.22
2022-08-14T02:39:53.981Z,96489.41
2022-08-14T02:44:49.045Z,96482.66
2022-08-14T02:49:42.927Z,96486.28
2022-08-14T02:54:37.981Z,96474.44
2022-08-14T02:59:33.639Z,96482.00
2022-08-14T03:04:28.509Z,96478.31
2022-08-14T03:09:21.831Z,96474.50
2022-08-14T03:14:17.924Z,96460.75
2022-08-14T03:19:12.281Z,96456.78
2022-08-14T03:24:16.674Z,96452.31
2022-08-14T03:29:20.659Z,96436.56
2022-08-14T03:34:24.574Z,96436.97
2022-08-14T03:39:32.095Z,96423.44
2022-08-14T03:45:26.720Z,96426.94
2022-08-14T03:49:43.111Z,96429.78
2022-08-14T03:54:38.043Z,96429.56
2022-08-14T03:59:35.738Z,96426.13
2022-08-14T04:04:31.395Z,96426.16
2022-08-14T04:09:26.881Z,96434.09
2022-08-14T04:14:20.527Z,96435.75
2022-08-14T04:19:17.415Z,96434.09
2022-08-14T04:24:13.825Z,96436.06
2022-08-14T04:29:15.303Z,96430.94
2022-08-14T04:34:17.159Z,96447.34
2022-08-14T04:39:32.761Z,96452.44
2022-08-14T04:44:36.136Z,96439.38
2022-08-14T04:49:30.831Z,96428.75
2022-08-14T04:54:28.572Z,96426.34
2022-08-14T04:59:22.476Z,96429.06
2022-08-14T05:04:16.323Z,96446.06
2022-08-14T05:09:13.965Z,96448.56
2022-08-14T05:14:34.437Z,96455.19
2022-08-14T05:19:29.315Z,96439.97
2022-08-14T05:24:23.042Z,96434.13
2022-08-14T05:29:18.006Z,96440.44
2022-08-14T05:34:11.727Z,96434.25
2022-08-14T05:39:06.338Z,96433.91
2022-08-14T05:44:01.992Z,96433.41
2022-08-14T05:48:59.710Z,96429.91
2022-08-14T05:54:01.770Z,96421.69
2022-08-14T05:59:07.407Z,96415.84
2022-08-14T06:04:04.566Z,96404.31
2022-08-14T06:08:58.405Z,96395.09
2022-08-14T06:13:51.694Z,96379.47
2022-08-14T06:18:52.576Z,96374.31
2022-08-14T06:23:49.087Z,96363.41
2022-08-14T06:28:45.665Z,96362.16
2022-08-14T06:35:04.790Z,96354.97
2022-08-14T06:38:54.714Z,96352.38
2022-08-14T06:43:49.124Z,96356.28
2022-08-14T06:48:42.581Z,96359.94
2022-08-14T06:53:35.896Z,96362.94
2022-08-14T06:58:32.108Z,96361.59
2022-08-14T07:03:43.763Z,96361.69
2022-08-14T07:08:37.807Z,96367.19
2022-08-14T07:13:32.974Z,96366.09
2022-08-14T07:18:29.177Z,96363.06
2022-08-14T07:23:24.329Z,96360.72
2022-08-14T07:28:23.501Z,96372.47
2022-08-14T07:33:18.585Z,96376.44
2022-08-14T07:38:21.709Z,96378.03
2022-08-14T07:43:16.473Z,96359.63
2022-08-14T07:48:14.953Z,96360.47
2022-08-14T07:53:11.325Z,96348.38
2022-08-14T07:58:05.005Z,96353.72
2022-08-14T08:03:19.522Z,96366.59
2022-08-14T08:08:26.564Z,96378.44
2022-08-14T08:13:24.145Z,96368.69
2022-08-14T08:18:20.593Z,96370.66
2022-08-14T08:23:28.203Z,96363.13
2022-08-14T08:28:34.342Z,96361.69
2022-08-14T08:33:32.227Z,96348.34
2022-08-14T08:39:16.835Z,96338.84
2022-08-14T08:43:45.810Z,96319.59
2022-08-14T08:48:53.733Z,96323.13
2022-08-14T08:53:57.642Z,96332.34
2022-08-14T08:58:50.904Z,96324.72
2022-08-14T09:03:45.088Z,96308.56
2022-08-14T09:08:38.515Z,96320.59
2022-08-14T09:13:33.324Z,96311.16
2022-08-14T09:18:28.090Z,96296.19
2022-08-14T09:23:27.467Z,96292.72
2022-08-14T09:28:28.561Z,96274.72
2022-08-14T09:33:56.560Z,96280.25
2022-08-14T09:39:23.354Z,96289.81
2022-08-14T09:44:46.059Z,96280.13
2022-08-14T09:49:52.167Z,96277.69
2022-08-14T09:54:49.757Z,96267.16
2022-08-14T09:59:50.454Z,96273.88
2022-08-14T10:04:46.337Z,96265.63
2022-08-14T10:10:00.074Z,96250.38
2022-08-14T10:14:55.703Z,96261.69
2022-08-14T10:19:50.957Z,96262.31
2022-08-14T10:24:46.314Z,96258.19
2022-08-14T10:29:48.734Z,96262.63
2022-08-14T10:34:42.879Z,96260.06
2022-08-14T10:39:40.967Z,96244.53
2022-08-14T10:44:53.186Z,96242.31
2022-08-14T10:49:59.889Z,96236.97
2022-08-14T10:55:08.238Z,96209.81
2022-08-14T11:00:13.626Z,96221.75
2022-08-14T11:05:18.713Z,96210.78
2022-08-14T11:10:15.844Z,96203.22
2022-08-14T11:15:10.779Z,96196.78
2022-08-14T11:20:13.840Z,96200.19
2022-08-14T11:25:14.916Z,96196.53
2022-08-14T11:30:50.981Z,96191.16
2022-08-14T11:35:44.324Z,96198.59
2022-08-14T11:40:43.967Z,96174.88
2022-08-14T11:45:42.161Z,96175.56
2022-08-14T11:50:38.227Z,96168.69
2022-08-14T11:55:38.847Z,96160.34
2022-08-14T12:00:39.514Z,96160.41
2022-08-14T12:05:42.504Z,96174.09
2022-08-14T12:10:42.487Z,96166.59
2022-08-14T12:15:37.934Z,96172.69
2022-08-14T12:20:45.920Z,96169.31
2022-08-14T12:25:46.670Z,96165.56
2022-08-14T12:30:56.853Z,96160.78
2022-08-14T12:35:56.236Z,96168.50
2022-08-14T12:40:52.374Z,96165.22
2022-08-14T12:45:50.646Z,96152.13
2022-08-14T12:50:49.891Z,96153.06
2022-08-14T12:56:18.836Z,96150.13
2022-08-14T13:01:20.597Z,96156.75
2022-08-14T13:06:16.403Z,96151.97
2022-08-14T13:11:14.742Z,96159.81
2022-08-14T13:16:20.173Z,96144.97
2022-08-14T13:21:16.794Z,96138.94
2022-08-14T13:26:10.237Z,96135.75
2022-08-14T13:31:11.083Z,96126.03
2022-08-14T13:36:06.376Z,96114.00
2022-08-14T13:41:01.339Z,96116.53
2022-08-14T13:45:59.696Z,96103.88
2022-08-14T13:50:58.520Z,96094.03
2022-08-14T13:55:58.442Z,96098.94
2022-08-14T14:00:54.906Z,96087.72
2022-08-14T14:05:54.230Z,96067.81
2022-08-14T14:10:49.973Z,96067.47
2022-08-14T14:15:48.505Z,96057.75
2022-08-14T14:20:55.074Z,96051.97
2022-08-14T14:25:56.935Z,96051.97
2022-08-14T14:30:53.889Z,96060.19
2022-08-14T14:35:48.923Z,96045.78
2022-08-14T14:40:54.480Z,96050.72
2022-08-14T14:45:56.911Z,96051.78
2022-08-14T14:50:53.038Z,96051.63
2022-08-14T14:55:59.507Z,96035.34
2022-08-14T15:01:08.743Z,96031.81
2022-08-14T15:06:04.853Z,96046.81
2022-08-14T15:11:01.719Z,96044.72
2022-08-14T15:15:55.623Z,96030.84
2022-08-14T15:20:48.979Z,96029.31
2022-08-14T15:25:53.029Z,96028.88
2022-08-14T15:30:51.186Z,96022.13
2022-08-14T15:35:52.113Z,96029.38
2022-08-14T15:40:56.202Z,96046.66
2022-08-14T15:45:51.487Z,96038.75
2022-08-14T15:50:45.547Z,96056.44
2022-08-14T15:55:42.637Z,96055.56
2022-08-14T16:00:55.067Z,96050.78
2022-08-14T16:05:49.837Z,96051.84
2022-08-14T16:10:46.080Z,96054.16
2022-08-14T16:15:45.444Z,96061.06
2022-08-14T16:20:57.186Z,96059.91
2022-08-14T16:25:52.931Z,96069.03
2022-08-14T16:30:48.746Z,96060.03
2022-08-14T16:35:59.404Z,96053.97
2022-08-14T16:41:16.528Z,96052.69
2022-08-14T16:46:11.323Z,96054.19
2022-08-14T16:51:06.732Z,96047.06
2022-08-14T16:56:17.215Z,96046.81
2022-08-14T17:01:23.253Z,96047.03
2022-08-14T17:06:46.037Z,96041.09
2022-08-14T17:11:56.219Z,96040.88
2022-08-14T17:16:56.658Z,96039.22
2022-08-14T17:21:53.441Z,96047.38
2022-08-14T17:26:55.141Z,96040.94
2022-08-14T17:31:58.796Z,96040.47
2022-08-14T17:36:56.440Z,96031.56
2022-08-14T17:42:01.688Z,96033.25
2022-08-14T17:46:59.619Z,96028.75
2022-08-14T17:52:03.800Z,96037.53
2022-08-14T17:57:12.934Z,96037.34
2022-08-14T18:02:09.451Z,96036.53
2022-08-14T18:07:50.435Z,96043.94
2022-08-14T18:12:36.954Z,96052.22
2022-08-14T18:17:31.589Z,96054.81
2022-08-14T18:22:32.201Z,96067.31
2022-08-14T18:27:41.656Z,96080.63
2022-08-14T18:32:47.548Z,96077.41
2022-08-14T18:37:55.969Z,96083.31
2022-08-14T18:43:03.231Z,96080.56
2022-08-14T18:48:33.247Z,96085.31
2022-08-14T18:53:57.025Z,96095.88
2022-08-14T18:58:58.853Z,96093.06
2022-08-14T19:03:53.394Z,96100.66
2022-08-14T19:08:49.346Z,96104.53
2022-08-14T19:13:48.264Z,96106.59
2022-08-14T19:18:53.155Z,96107.47
2022-08-14T19:24:30.065Z,96114.81
2022-08-14T19:29:36.126Z,96104.25
2022-08-14T19:34:48.145Z,96108.94
2022-08-14T19:39:53.866Z,96117.84
2022-08-14T19:44:50.153Z,96115.75
2022-08-14T19:50:08.636Z,96126.53
2022-08-14T19:55:02.714Z,96114.78
2022-08-14T20:00:28.701Z,96123.09
2022-08-14T20:05:24.298Z,96132.78
2022-08-14T20:11:06.627Z,96135.78
2022-08-14T20:15:47.177Z,96138.78
2022-08-14T20:20:43.913Z,96140.09
2022-08-14T20:25:56.380Z,96130.13
2022-08-14T20:30:53.731Z,96123.06
2022-08-14T20:35:53.773Z,96130.19
2022-08-14T20:40:52.748Z,96126.84
2022-08-14T20:45:50.170Z,96120.13
2022-08-14T20:50:45.531Z,96121.34
2022-08-14T20:55:45.192Z,96117.81
2022-08-14T21:00:52.611Z,96119.88
2022-08-14T21:05:47.686Z,96116.78
2022-08-14T21:10:53.192Z,96108.25
2022-08-14T21:15:58.118Z,96116.94
2022-08-14T21:20:53.359Z,96131.31
2022-08-14T21:25:46.750Z,96124.75
2022-08-14T21:30:50.972Z,96125.94
2022-08-14T21:35:46.595Z,96128.53
2022-08-14T21:40:46.415Z,96134.47
2022-08-14T21:45:39.860Z,96141.28
2022-08-14T21:50:39.568Z,96149.63
2022-08-14T21:55:49.508Z,96149.81
2022-08-14T22:00:46.404Z,96162.75
2022-08-14T22:05:41.142Z,96164.69
2022-08-14T22:10:37.088Z,96166.41
2022-08-14T22:15:32.437Z,96173.63
2022-08-14T22:20:29.142Z,96169.53
2022-08-14T22:25:22.798Z,96156.91
2022-08-14T22:30:27.184Z,96169.91
2022-08-14T22:35:23.429Z,96165.78
2022-08-14T22:40:56.723Z,96159.41
2022-08-14T22:45:36.370Z,96174.81
2022-08-14T22:50:33.745Z,96171.53
2022-08-14T22:55:28.097Z,96173.78
2022-08-14T23:00:25.666Z,96177.13
2022-08-14T23:05:40.279Z,96176.72
2022-08-14T23:10:40.469Z,96172.25
2022-08-14T23:15:37.380Z,96174.13
2022-08-14T23:20:31.882Z,96173.31
2022-08-14T23:25:56.666Z,96163.44
2022-08-14T23:30:49.016Z,96174.50
2022-08-14T23:35:59.246Z,96175.16
2022-08-14T23:40:53.306Z,96190.59
2022-08-14T23:45:56.408Z,96187.69
2022-08-14T23:50:52.937Z,96195.31
2022-08-14T23:55:57.050Z,96194.25
